createdAt,value
2022-10-05T00:00:23.791Z,98.85
2022-10-05T00:04:27.109Z,98.81
2022-10-05T00:06:28.333Z,98.73
2022-10-05T00:08:30.218Z,98.63
2022-10-05T00:10:31.697Z,98.42
2022-10-05T00:14:35.054Z,98.62
2022-10-05T00:16:36.073Z,98.61
2022-10-05T00:18:37.521Z,98.68
2022-10-05T00:20:38.780Z,98.79
2022-10-05T00:22:40.125Z,98.76
2022-10-05T00:24:41.664Z,98.72
2022-10-05T00:26:43.692Z,98.65
2022-10-05T00:28:45.317Z,98.62
2022-10-05T00:30:46.731Z,98.54
2022-10-05T00:32:48.314Z,98.48
2022-10-05T00:34:49.891Z,98.49
2022-10-05T00:36:51.783Z,98.53
2022-10-05T00:38:53.722Z,98.51
2022-10-05T00:40:55.046Z,98.59
2022-10-05T00:42:56.812Z,98.66
2022-10-05T00:44:58.696Z,98.76
2022-10-05T00:47:00.568Z,98.77
2022-10-05T00:49:01.733Z,98.69
2022-10-05T00:51:03.169Z,98.69
2022-10-05T00:53:04.809Z,98.72
2022-10-05T00:57:08.157Z,98.72
2022-10-05T00:59:09.534Z,98.73
2022-10-05T01:01:11.140Z,98.68
2022-10-05T01:03:12.441Z,98.56
2022-10-05T01:05:14.138Z,98.64
2022-10-05T01:07:15.536Z,98.67
2022-10-05T01:09:17.441Z,98.71
2022-10-05T01:13:21.173Z,98.94
2022-10-05T01:15:22.341Z,98.99
2022-10-05T01:17:23.965Z,98.99
2022-10-05T01:19:25.430Z,99.01
2022-10-05T01:21:26.418Z,99.02
2022-10-05T01:23:27.721Z,99.02
2022-10-05T01:25:29.105Z,99
2022-10-05T01:27:30.568Z,98.98
2022-10-05T01:29:31.816Z,98.91
2022-10-05T01:31:33.320Z,98.86
2022-10-05T01:33:34.773Z,98.84
2022-10-05T01:35:36.139Z,98.81
2022-10-05T01:39:39.220Z,98.82
2022-10-05T01:41:40.731Z,98.83
2022-10-05T01:43:42.256Z,98.89
2022-10-05T01:45:43.912Z,98.94
2022-10-05T01:47:45.722Z,98.98
2022-10-05T01:49:47.511Z,99.03
2022-10-05T01:51:49.034Z,99.07
2022-10-05T01:53:50.506Z,99.06
2022-10-05T01:55:51.757Z,99.11
2022-10-05T01:57:53.284Z,99.13
2022-10-05T01:59:54.826Z,99.12
2022-10-05T02:01:56.542Z,99.1
2022-10-05T02:03:57.938Z,99.05
2022-10-05T02:05:59.436Z,99.02
2022-10-05T02:08:01.155Z,99.02
2022-10-05T02:12:04.054Z,99.03
2022-10-05T02:14:05.902Z,99
2022-10-05T02:16:07.369Z,98.96
2022-10-05T02:18:09.227Z,98.93
2022-10-05T02:20:54.657Z,98.95
2022-10-05T02:22:56.251Z,98.97
2022-10-05T02:24:57.913Z,98.98
2022-10-05T02:26:58.998Z,99.01
2022-10-05T02:29:00.507Z,99.03
2022-10-05T02:31:01.959Z,99.03
2022-10-05T02:33:03.504Z,99.04
2022-10-05T02:35:05.304Z,99.06
2022-10-05T02:37:06.897Z,99.06
2022-10-05T02:39:08.861Z,99.15
2022-10-05T02:41:10.597Z,99.16
2022-10-05T02:43:12.415Z,99.21
2022-10-05T02:45:13.843Z,99.19
2022-10-05T02:49:15.950Z,99.22
2022-10-05T02:51:17.351Z,99.24
2022-10-05T02:53:18.706Z,99.24
2022-10-05T02:55:20.499Z,99.23
2022-10-05T02:59:23.560Z,99.2
2022-10-05T03:01:25.574Z,99.18
2022-10-05T03:03:26.963Z,99.2
2022-10-05T03:05:28.853Z,99.19
2022-10-05T03:07:30.816Z,99.2
2022-10-05T03:09:32.081Z,99.23
2022-10-05T03:11:33.222Z,99.22
2022-10-05T03:13:34.713Z,99.21
2022-10-05T03:15:36.023Z,99.2
2022-10-05T03:17:37.669Z,99.19
2022-10-05T03:19:38.812Z,99.14
2022-10-05T03:21:40.320Z,99.08
2022-10-05T03:23:41.717Z,99.07
2022-10-05T03:25:43.669Z,99.06
2022-10-05T03:27:45.237Z,99.04
2022-10-05T03:29:46.596Z,99.06
2022-10-05T03:31:47.796Z,99.1
2022-10-05T03:33:49.209Z,99.1
2022-10-05T03:35:50.162Z,99.12
2022-10-05T03:37:51.553Z,99.14
2022-10-05T03:39:53.077Z,99.13
2022-10-05T03:41:54.551Z,99.14
2022-10-05T03:43:55.776Z,99.12
2022-10-05T03:45:57.026Z,99.14
2022-10-05T03:48:01.423Z,99.19
2022-10-05T03:50:00.256Z,99.24
2022-10-05T03:52:02.081Z,99.27
2022-10-05T03:54:03.434Z,99.23
2022-10-05T03:58:06.220Z,99.23
2022-10-05T04:00:08.037Z,99.19
2022-10-05T04:02:09.570Z,99.19
2022-10-05T04:04:10.888Z,99.2
2022-10-05T04:06:12.313Z,99.2
2022-10-05T04:08:13.494Z,99.18
2022-10-05T04:10:15.414Z,99.19
2022-10-05T04:12:16.565Z,99.22
2022-10-05T04:14:18.323Z,99.21
2022-10-05T04:16:19.669Z,99.17
2022-10-05T04:18:21.088Z,99.16
2022-10-05T04:20:22.122Z,99.12
2022-10-05T04:22:23.850Z,99.12
2022-10-05T04:24:25.400Z,99.12
2022-10-05T04:26:26.634Z,99.19
2022-10-05T04:28:31.899Z,99.26
2022-10-05T04:30:29.470Z,99.32
2022-10-05T04:32:31.370Z,99.36
2022-10-05T04:34:32.535Z,99.37
2022-10-05T04:36:33.936Z,99.38
2022-10-05T04:40:36.059Z,99.42
2022-10-05T04:42:37.253Z,99.44
2022-10-05T04:44:38.802Z,99.43
2022-10-05T04:46:40.417Z,99.44
2022-10-05T04:48:42.316Z,99.43
2022-10-05T04:50:43.473Z,99.42
2022-10-05T04:52:45.222Z,99.4
2022-10-05T04:54:47.172Z,99.38
2022-10-05T04:56:48.661Z,99.36
2022-10-05T04:58:49.488Z,99.33
2022-10-05T05:00:51.196Z,99.3
2022-10-05T05:02:52.382Z,99.29
2022-10-05T05:04:53.667Z,99.27
2022-10-05T05:06:55.243Z,99.28
2022-10-05T05:08:56.476Z,99.3
2022-10-05T05:12:58.586Z,99.34
2022-10-05T05:14:59.872Z,99.34
2022-10-05T05:17:01.183Z,99.33
2022-10-05T05:19:02.224Z,99.33
2022-10-05T05:21:03.321Z,99.33
2022-10-05T05:23:04.676Z,99.36
2022-10-05T05:25:05.810Z,99.38
2022-10-05T05:29:08.779Z,99.39
2022-10-05T05:31:10.628Z,99.41
2022-10-05T05:33:11.963Z,99.42
2022-10-05T05:35:13.818Z,99.41
2022-10-05T05:37:15.723Z,99.38
2022-10-05T05:39:17.591Z,99.36
2022-10-05T05:41:18.958Z,99.33
2022-10-05T05:43:20.176Z,99.32
2022-10-05T05:45:21.628Z,99.36
2022-10-05T05:47:22.769Z,99.38
2022-10-05T05:49:24.468Z,99.39
2022-10-05T05:51:26.306Z,99.36
2022-10-05T05:53:27.935Z,99.38
2022-10-05T05:55:30.475Z,99.4
2022-10-05T05:57:31.754Z,99.38
2022-10-05T05:59:33.741Z,99.34
2022-10-05T06:01:36.410Z,99.3
2022-10-05T06:05:39.591Z,99.29
2022-10-05T06:07:40.982Z,99.35
2022-10-05T06:09:42.873Z,99.4
2022-10-05T06:11:44.423Z,99.44
2022-10-05T06:13:46.176Z,99.49
2022-10-05T06:15:47.412Z,99.53
2022-10-05T06:17:49.020Z,99.55
2022-10-05T06:19:50.333Z,99.58
2022-10-05T06:21:51.724Z,99.55
2022-10-05T06:23:53.007Z,99.58
2022-10-05T06:25:54.754Z,99.59
2022-10-05T06:27:56.048Z,99.51
2022-10-05T06:29:57.895Z,99.52
2022-10-05T06:31:59.268Z,99.51
2022-10-05T06:34:00.871Z,99.47
2022-10-05T06:36:02.498Z,99.49
2022-10-05T06:38:03.490Z,99.46
2022-10-05T06:40:05.135Z,99.44
2022-10-05T06:42:07.040Z,99.4
2022-10-05T06:44:08.304Z,99.41
2022-10-05T06:46:09.835Z,99.45
2022-10-05T06:48:11.736Z,99.43
2022-10-05T06:50:13.489Z,99.42
2022-10-05T06:52:15.002Z,99.39
2022-10-05T06:54:16.470Z,99.38
2022-10-05T06:56:17.892Z,99.41
2022-10-05T06:58:18.973Z,99.45
2022-10-05T07:00:20.574Z,99.47
2022-10-05T07:02:22.581Z,99.49
2022-10-05T07:04:23.958Z,99.48
2022-10-05T07:06:25.723Z,99.52
2022-10-05T07:08:26.718Z,99.53
2022-10-05T07:10:27.628Z,99.45
2022-10-05T07:12:28.596Z,99.31
2022-10-05T07:14:30.799Z,99.46
2022-10-05T07:16:31.952Z,99.58
2022-10-05T07:18:33.299Z,99.61
2022-10-05T07:20:34.565Z,99.62
2022-10-05T07:22:36.331Z,99.58
2022-10-05T07:24:37.721Z,97.04
2022-10-05T07:26:39.490Z,97.09
2022-10-05T07:28:41.576Z,97.3
2022-10-05T07:30:42.943Z,94.73
2022-10-05T07:32:44.917Z,95.88
2022-10-05T07:34:46.413Z,95.15
2022-10-05T07:36:52.284Z,94.13
2022-10-05T07:38:49.568Z,93.6
2022-10-05T07:40:51.210Z,91.95
2022-10-05T07:42:52.422Z,87.35
2022-10-05T07:44:54.729Z,87.43
2022-10-05T07:48:57.462Z,88.35
2022-10-05T07:51:00.155Z,86.86
2022-10-05T07:53:01.496Z,85.09
2022-10-05T07:55:02.814Z,85.03
2022-10-05T07:57:04.620Z,85.35
2022-10-05T08:01:06.808Z,85.71
2022-10-05T08:03:07.854Z,83.21
2022-10-05T08:05:09.231Z,82.22
2022-10-05T08:07:10.181Z,82.72
2022-10-05T08:11:12.914Z,82.78
2022-10-05T08:13:14.127Z,80.95
2022-10-05T08:15:15.164Z,82.46
2022-10-05T08:17:16.216Z,83.96
2022-10-05T08:19:17.626Z,83.45
2022-10-05T08:21:18.487Z,82.66
2022-10-05T08:23:20.270Z,81.86
2022-10-05T08:25:21.958Z,81.66
2022-10-05T08:27:23.333Z,80.3
2022-10-05T08:29:24.295Z,77.78
2022-10-05T08:31:25.640Z,79.04
2022-10-05T08:33:26.923Z,78.77
2022-10-05T08:35:29.001Z,81.52
2022-10-05T08:37:30.208Z,79.89
2022-10-05T08:39:31.388Z,79.84
2022-10-05T08:41:33.032Z,77.01
2022-10-05T08:43:35.395Z,77.6
2022-10-05T08:49:37.947Z,76.96
2022-10-05T08:51:39.222Z,77.84
2022-10-05T08:53:40.253Z,75.88
2022-10-05T08:55:42.029Z,79.88
2022-10-05T08:57:43.501Z,80.57
2022-10-05T08:59:44.616Z,79.93
2022-10-05T09:01:47.269Z,81.81
2022-10-05T09:03:48.394Z,81.22
2022-10-05T09:04:58.325Z,81.12
2022-10-05T09:06:59.699Z,80.06
2022-10-05T09:09:01.004Z,80.66
2022-10-05T09:11:01.856Z,79.36
2022-10-05T09:13:02.873Z,76.96
2022-10-05T09:15:24.089Z,79.16
2022-10-05T09:17:04.917Z,78.59
2022-10-05T09:19:05.865Z,78.13
2022-10-05T09:21:07.319Z,78.62
2022-10-05T09:23:08.900Z,79.11
2022-10-05T09:25:10.031Z,79.42
2022-10-05T09:27:11.235Z,78.04
2022-10-05T09:29:12.489Z,80.03
2022-10-05T09:31:14.100Z,77.36
2022-10-05T09:35:16.881Z,77.27
2022-10-05T09:37:17.741Z,76.36
2022-10-05T09:39:18.726Z,76.81
2022-10-05T09:41:20.336Z,76.98
2022-10-05T09:43:21.717Z,75.23
2022-10-05T09:45:22.924Z,76.17
2022-10-05T09:47:24.729Z,75.17
2022-10-05T09:49:26.424Z,75.53
2022-10-05T09:53:29.036Z,74.81
2022-10-05T09:55:30.334Z,71.9
2022-10-05T09:57:31.366Z,74.21
2022-10-05T09:59:33.151Z,73.4
2022-10-05T10:03:36.322Z,71.24
2022-10-05T10:05:37.369Z,73.06
2022-10-05T10:07:38.385Z,74.32
2022-10-05T10:09:39.585Z,71.5
2022-10-05T10:11:41.127Z,70.19
2022-10-05T10:13:41.943Z,71.4
2022-10-05T10:15:43.072Z,70.58
2022-10-05T10:17:44.278Z,71.97
2022-10-05T10:19:45.619Z,71.43
2022-10-05T10:21:47.279Z,71.79
2022-10-05T10:23:48.735Z,71.89
2022-10-05T10:25:50.205Z,71.42
2022-10-05T10:27:52.513Z,71.25
2022-10-05T10:29:52.707Z,70.23
2022-10-05T10:31:53.728Z,69.53
2022-10-05T10:35:56.265Z,70.79
2022-10-05T10:37:57.977Z,69.81
2022-10-05T10:39:59.032Z,70.6
2022-10-05T10:42:00.406Z,69.26
2022-10-05T10:46:03.370Z,69.39
2022-10-05T10:48:04.155Z,66.22
2022-10-05T10:50:05.065Z,69.72
2022-10-05T10:52:06.218Z,65.73
2022-10-05T10:54:08.022Z,67.87
2022-10-05T10:56:09.427Z,66.77
2022-10-05T10:58:15.177Z,67.73
2022-10-05T11:00:11.916Z,67.35
2022-10-05T11:02:13.085Z,67.27
2022-10-05T11:04:14.620Z,66.32
2022-10-05T11:06:15.822Z,67.12
2022-10-05T11:08:25.395Z,67.39
2022-10-05T11:10:18.319Z,67.99
2022-10-05T11:12:19.167Z,67.26
2022-10-05T11:14:20.030Z,67.96
2022-10-05T11:16:21.742Z,66.63
2022-10-05T11:18:23.475Z,67.32
2022-10-05T11:20:24.949Z,68.13
2022-10-05T11:22:25.850Z,65.45
2022-10-05T11:24:27.130Z,67.07
2022-10-05T11:26:28.425Z,66.59
2022-10-05T11:28:30.306Z,65.75
2022-10-05T11:30:31.687Z,66.62
2022-10-05T11:32:33.424Z,65.79
2022-10-05T11:34:34.360Z,65.4
2022-10-05T11:36:35.236Z,67.46
2022-10-05T11:38:36.230Z,65.83
2022-10-05T11:40:37.402Z,66.23
2022-10-05T11:42:38.773Z,66.06
2022-10-05T11:44:40.064Z,64.73
2022-10-05T11:46:42.035Z,65.99
2022-10-05T11:48:43.181Z,65.21
2022-10-05T11:50:44.931Z,67.36
2022-10-05T11:52:46.252Z,65.96
2022-10-05T11:55:10.683Z,65.94
2022-10-05T11:56:49.587Z,65.35
2022-10-05T11:58:49.820Z,66.8
2022-10-05T12:00:51.129Z,66.79
2022-10-05T12:02:52.519Z,64.21
2022-10-05T12:04:53.892Z,65.28
2022-10-05T12:06:55.164Z,64.66
2022-10-05T12:08:56.883Z,66.34
2022-10-05T12:10:57.917Z,66.12
2022-10-05T12:12:59.623Z,65.45
2022-10-05T12:15:00.569Z,66.68
2022-10-05T12:17:01.542Z,65.27
2022-10-05T12:19:02.442Z,65.52
2022-10-05T12:21:03.502Z,65.74
2022-10-05T12:23:04.934Z,66.15
2022-10-05T12:25:06.234Z,66.05
2022-10-05T12:27:07.301Z,65.47
2022-10-05T12:29:08.771Z,65.51
2022-10-05T12:31:09.701Z,65.62
2022-10-05T12:33:10.976Z,64.99
2022-10-05T12:35:12.771Z,65.92
2022-10-05T12:37:14.164Z,65.93
2022-10-05T12:39:16.493Z,64.75
2022-10-05T12:41:17.615Z,65.5
2022-10-05T12:43:18.820Z,64.62
2022-10-05T12:45:20.894Z,64.62
2022-10-05T12:47:22.592Z,65.47
2022-10-05T12:49:23.439Z,64.46
2022-10-05T12:51:24.485Z,64.7
2022-10-05T12:53:26.100Z,64.78
2022-10-05T12:55:27.342Z,64.18
2022-10-05T12:57:28.706Z,64.6
2022-10-05T12:59:29.755Z,63.74
2022-10-05T13:01:30.862Z,63.33
2022-10-05T13:03:31.976Z,63.51
2022-10-05T13:05:32.927Z,62.98
2022-10-05T13:07:34.664Z,63.12
2022-10-05T13:09:35.641Z,63.01
2022-10-05T13:11:37.359Z,62.76
2022-10-05T13:15:40.115Z,60.98
2022-10-05T13:17:41.167Z,61.47
2022-10-05T13:19:42.929Z,61.42
2022-10-05T13:21:44.639Z,61.96
2022-10-05T13:23:46.149Z,60.95
2022-10-05T13:25:47.690Z,61.03
2022-10-05T13:27:49.280Z,60.15
2022-10-05T13:29:54.159Z,60.67
2022-10-05T13:31:51.813Z,61.04
2022-10-05T13:33:52.791Z,62.45
2022-10-05T13:35:53.894Z,60.37
2022-10-05T13:37:54.777Z,58.86
2022-10-05T13:39:55.790Z,59.55
2022-10-05T13:41:56.999Z,58.62
2022-10-05T13:43:58.011Z,57.98
2022-10-05T13:45:59.225Z,59.1
2022-10-05T13:48:00.011Z,58.72
2022-10-05T13:50:01.382Z,58.57
2022-10-05T13:52:02.262Z,58.69
2022-10-05T13:54:02.972Z,57.81
2022-10-05T13:56:03.925Z,58.13
2022-10-05T13:58:05.542Z,58.41
2022-10-05T14:00:07.127Z,59.16
2022-10-05T14:02:08.426Z,59.54
2022-10-05T14:04:09.314Z,57.74
2022-10-05T14:08:12.091Z,58.27
2022-10-05T14:10:13.277Z,58.35
2022-10-05T14:12:14.247Z,59.35
2022-10-05T14:14:15.897Z,58.47
2022-10-05T14:16:17.234Z,58.73
2022-10-05T14:18:18.496Z,58.39
2022-10-05T14:20:19.577Z,57.29
2022-10-05T14:22:21.119Z,56.81
2022-10-05T14:24:39.533Z,56.68
2022-10-05T14:26:23.016Z,56.36
2022-10-05T14:28:24.613Z,56.93
2022-10-05T14:30:25.790Z,55.17
2022-10-05T14:32:27.551Z,55.31
2022-10-05T14:34:29.209Z,57.04
2022-10-05T14:36:30.098Z,56.07
2022-10-05T14:38:31.460Z,55.73
2022-10-05T14:40:33.198Z,55.3
2022-10-05T14:42:34.078Z,55.17
2022-10-05T14:44:35.639Z,55.29
2022-10-05T14:46:36.894Z,54.43
2022-10-05T14:48:37.930Z,55.57
2022-10-05T14:50:38.924Z,54.14
2022-10-05T14:52:40.321Z,54.81
2022-10-05T14:56:43.036Z,55.08
2022-10-05T14:58:44.264Z,53.38
2022-10-05T15:00:48.745Z,54.74
2022-10-05T15:02:46.665Z,54.58
2022-10-05T15:06:53.354Z,57.45
2022-10-05T15:08:50.439Z,56.03
2022-10-05T15:10:51.856Z,56.55
2022-10-05T15:12:53.127Z,56.61
2022-10-05T15:14:54.256Z,57.87
2022-10-05T15:16:55.744Z,56.17
2022-10-05T15:18:56.520Z,57.07
2022-10-05T15:20:58.205Z,56.79
2022-10-05T15:22:59.673Z,58.55
2022-10-05T15:25:01.138Z,57.12
2022-10-05T15:27:02.342Z,57.17
2022-10-05T15:29:03.280Z,56.4
2022-10-05T15:31:05.051Z,56.28
2022-10-05T15:33:06.343Z,56.52
2022-10-05T15:35:07.446Z,56.22
2022-10-05T15:39:09.977Z,53.7
2022-10-05T15:41:11.611Z,56.36
2022-10-05T15:43:13.094Z,55.99
2022-10-05T15:45:14.489Z,56.06
2022-10-05T15:49:17.751Z,57.02
2022-10-05T15:50:01.455Z,57.68
2022-10-05T15:52:02.471Z,56.85
2022-10-05T15:54:06.681Z,56.37
2022-10-05T15:56:05.071Z,57.05
2022-10-05T15:58:05.870Z,57.87
2022-10-05T16:00:07.688Z,59.46
2022-10-05T16:02:09.226Z,59.42
2022-10-05T16:04:10.019Z,59.76
2022-10-05T16:06:10.919Z,58.62
2022-10-05T16:08:11.960Z,58.92
2022-10-05T16:10:12.796Z,59.86
2022-10-05T16:12:14.213Z,60.39
2022-10-05T16:14:15.804Z,61.15
2022-10-05T16:16:17.383Z,60.99
2022-10-05T16:18:18.571Z,60.9
2022-10-05T16:20:19.983Z,60.7
2022-10-05T16:22:21.289Z,60.61
2022-10-05T16:26:24.003Z,60.82
2022-10-05T16:28:26.115Z,59.48
2022-10-05T16:32:28.009Z,61.19
2022-10-05T16:34:29.030Z,62.27
2022-10-05T16:36:30.108Z,64.96
2022-10-05T16:38:31.602Z,65.16
2022-10-05T16:42:34.331Z,69
2022-10-05T16:44:35.353Z,71.76
2022-10-05T16:46:36.359Z,73.36
2022-10-05T16:48:37.763Z,73.04
2022-10-05T16:50:39.356Z,72.7
2022-10-05T16:52:40.514Z,72.91
2022-10-05T16:54:45.513Z,72.95
2022-10-05T16:56:43.334Z,72.01
2022-10-05T16:58:44.844Z,72.37
2022-10-05T17:00:45.933Z,72.8
2022-10-05T17:02:47.187Z,72.33
2022-10-05T17:04:48.350Z,72.17
2022-10-05T17:06:49.514Z,71.5
2022-10-05T17:08:50.735Z,74.17
2022-10-05T17:10:52.448Z,75.63
2022-10-05T17:12:53.463Z,76.9
2022-10-05T17:14:55.328Z,76.9
2022-10-05T17:16:57.112Z,77.1
2022-10-05T17:18:58.865Z,77.79
2022-10-05T17:21:00.515Z,77.98
2022-10-05T17:23:01.793Z,77.1
2022-10-05T17:25:03.423Z,76.83
2022-10-05T17:27:04.641Z,77.18
2022-10-05T17:29:06.176Z,77.44
2022-10-05T17:31:07.805Z,78.38
2022-10-05T17:33:08.813Z,78.84
2022-10-05T17:35:11.906Z,79.34
2022-10-05T17:37:11.461Z,80.91
2022-10-05T17:39:12.495Z,81.27
2022-10-05T17:41:14.036Z,82.01
2022-10-05T17:43:15.520Z,82.32
2022-10-05T17:45:17.321Z,82.03
2022-10-05T17:47:18.480Z,81.53
2022-10-05T17:49:20.135Z,81.42
2022-10-05T17:53:22.839Z,82.24
2022-10-05T17:55:24.498Z,82.49
2022-10-05T17:57:25.974Z,81.29
2022-10-05T17:59:27.744Z,81.06
2022-10-05T18:01:28.891Z,81.17
2022-10-05T18:03:30.447Z,81.35
2022-10-05T18:07:33.507Z,84.19
2022-10-05T18:09:35.194Z,85.6
2022-10-05T18:11:36.689Z,87.3
2022-10-05T18:13:37.893Z,87.72
2022-10-05T18:15:38.844Z,88.07
2022-10-05T18:17:40.568Z,87.8
2022-10-05T18:19:41.891Z,86.87
2022-10-05T18:21:43.333Z,87.38
2022-10-05T18:23:44.279Z,87.79
2022-10-05T18:25:45.966Z,87.13
2022-10-05T18:27:47.415Z,86.58
2022-10-05T18:29:48.450Z,86.79
2022-10-05T18:31:49.939Z,86.72
2022-10-05T18:33:50.836Z,85.93
2022-10-05T18:35:52.037Z,86.59
2022-10-05T18:37:53.915Z,87.51
2022-10-05T18:39:55.672Z,86.08
2022-10-05T18:41:57.185Z,85.86
2022-10-05T18:43:58.452Z,85.69
2022-10-05T18:45:59.730Z,85.53
2022-10-05T18:48:01.267Z,84.97
2022-10-05T18:50:02.328Z,84.51
2022-10-05T18:52:03.760Z,84.46
2022-10-05T18:54:05.472Z,84.1
2022-10-05T18:56:06.676Z,83.81
2022-10-05T18:58:07.918Z,83.95
2022-10-05T19:00:09.215Z,83.82
2022-10-05T19:02:11.080Z,84.27
2022-10-05T19:06:13.512Z,84.96
2022-10-05T19:08:15.390Z,84.94
2022-10-05T19:10:17.170Z,85.03
2022-10-05T19:12:18.177Z,85.65
2022-10-05T19:14:19.929Z,86.3
2022-10-05T19:16:21.849Z,86.38
2022-10-05T19:18:23.387Z,86.78
2022-10-05T19:20:24.976Z,87.28
2022-10-05T19:22:26.811Z,87.53
2022-10-05T19:24:28.641Z,88.09
2022-10-05T19:26:29.612Z,88.89
2022-10-05T19:28:31.536Z,88.3
2022-10-05T19:30:32.862Z,88.13
2022-10-05T19:32:34.103Z,88.34
2022-10-05T19:34:35.247Z,88.8
2022-10-05T19:36:36.866Z,88.79
2022-10-05T19:38:38.702Z,88.23
2022-10-05T19:40:40.325Z,88.18
2022-10-05T19:42:42.109Z,88.89
2022-10-05T19:44:43.490Z,89.29
2022-10-05T19:48:46.284Z,89.73
2022-10-05T19:50:47.291Z,90.42
2022-10-05T19:52:50.063Z,90.28
2022-10-05T19:54:49.493Z,90.36
2022-10-05T19:56:50.717Z,90.85
2022-10-05T19:58:52.101Z,90.78
2022-10-05T20:00:53.399Z,90.58
2022-10-05T20:02:54.968Z,90.6
2022-10-05T20:04:56.763Z,91.2
2022-10-05T20:06:58.655Z,91
2022-10-05T20:09:00.495Z,91.34
2022-10-05T20:11:01.491Z,90.01
2022-10-05T20:13:03.188Z,90.18
2022-10-05T20:15:04.082Z,89.55
2022-10-05T20:17:05.860Z,89
2022-10-05T20:19:08.016Z,88.98
2022-10-05T20:21:09.056Z,89.69
2022-10-05T20:23:10.855Z,90.23
2022-10-05T20:25:12.194Z,90.27
2022-10-05T20:27:15.993Z,90.69
2022-10-05T20:29:15.518Z,90.95
2022-10-05T20:31:16.687Z,90.88
2022-10-05T20:33:18.010Z,91.21
2022-10-05T20:35:19.009Z,91.17
2022-10-05T20:37:20.722Z,91.02
2022-10-05T20:39:22.001Z,90.75
2022-10-05T20:41:23.485Z,90.84
2022-10-05T20:43:25.367Z,90.9
2022-10-05T20:45:27.255Z,91.33
2022-10-05T20:47:28.949Z,90.69
2022-10-05T20:49:29.955Z,90.19
2022-10-05T20:51:31.575Z,89.52
2022-10-05T20:53:33.010Z,89.32
2022-10-05T20:55:34.045Z,89.44
2022-10-05T20:57:35.513Z,89.48
2022-10-05T20:59:36.690Z,90.06
2022-10-05T21:03:38.843Z,90.48
2022-10-05T21:05:40.588Z,88.35
2022-10-05T21:07:42.418Z,87.27
2022-10-05T21:09:43.522Z,87
2022-10-05T21:13:47.132Z,87.27
2022-10-05T21:15:48.703Z,86.03
2022-10-05T21:17:50.330Z,85.1
2022-10-05T21:19:52.127Z,84.08
2022-10-05T21:21:53.354Z,83.41
2022-10-05T21:23:54.475Z,83.23
2022-10-05T21:25:56.003Z,83.39
2022-10-05T21:29:58.417Z,84.31
2022-10-05T21:32:00.242Z,84.43
2022-10-05T21:34:01.166Z,84.75
2022-10-05T21:36:02.321Z,85.93
2022-10-05T21:38:03.677Z,84.31
2022-10-05T21:40:05.270Z,84.24
2022-10-05T21:42:06.971Z,84.74
2022-10-05T21:44:08.331Z,85.16
2022-10-05T21:46:09.915Z,85.61
2022-10-05T21:48:11.078Z,87.01
2022-10-05T21:50:12.823Z,87.44
2022-10-05T21:52:14.669Z,87.02
2022-10-05T21:54:16.333Z,87.39
2022-10-05T21:56:17.616Z,87.1
2022-10-05T21:58:18.651Z,88.25
2022-10-05T22:00:20.350Z,88.83
2022-10-05T22:02:21.389Z,86.99
2022-10-05T22:04:22.656Z,86.66
2022-10-05T22:06:24.078Z,86.96
2022-10-05T22:08:25.699Z,86.72
2022-10-05T22:12:28.603Z,88.06
2022-10-05T22:14:29.893Z,88.54
2022-10-05T22:16:31.436Z,87.77
2022-10-05T22:18:32.800Z,86.3
2022-10-05T22:20:34.605Z,85.99
2022-10-05T22:22:35.519Z,85.45
2022-10-05T22:24:36.434Z,84.74
2022-10-05T22:26:37.635Z,83.66
2022-10-05T22:28:39.233Z,83.51
2022-10-05T22:30:40.856Z,83.1
2022-10-05T22:32:42.676Z,83.36
2022-10-05T22:34:43.636Z,83.03
2022-10-05T22:37:28.927Z,83.45
2022-10-05T22:39:29.896Z,83.46
2022-10-05T22:41:31.522Z,83.34
2022-10-05T22:43:33.228Z,83.41
2022-10-05T22:45:34.307Z,82.3
2022-10-05T22:47:35.933Z,81.97
2022-10-05T22:49:37.152Z,82.42
2022-10-05T22:51:38.126Z,83.15
2022-10-05T22:53:39.713Z,83.36
2022-10-05T22:55:40.937Z,84.59
2022-10-05T22:57:42.399Z,85.05
2022-10-05T22:59:43.501Z,85.21
2022-10-05T23:01:44.851Z,84.72
2022-10-05T23:03:46.280Z,84.76
2022-10-05T23:05:47.894Z,85.01
2022-10-05T23:07:49.548Z,84.35
2022-10-05T23:09:50.977Z,84.03
2022-10-05T23:11:52.617Z,84.12
2022-10-05T23:13:54.074Z,84.25
2022-10-05T23:15:55.312Z,84.08
2022-10-05T23:17:56.262Z,83.89
2022-10-05T23:19:57.782Z,83.6
2022-10-05T23:21:59.517Z,82.89
2022-10-05T23:24:00.807Z,82.89
2022-10-05T23:26:01.693Z,82.59
2022-10-05T23:28:03.350Z,82.49
2022-10-05T23:30:04.397Z,82.25
2022-10-05T23:32:05.672Z,82.06
2022-10-05T23:34:07.470Z,82.06
2022-10-05T23:38:11.198Z,81.89
2022-10-05T23:40:12.437Z,82.33
2022-10-05T23:42:14.213Z,83.65
2022-10-05T23:44:15.354Z,84.02
2022-10-05T23:46:16.537Z,83.28
2022-10-05T23:48:18.200Z,83.32
2022-10-05T23:50:19.999Z,83.98
2022-10-05T23:52:21.120Z,85.37
2022-10-05T23:54:22.503Z,86.14
2022-10-05T23:56:23.905Z,87.04
2022-10-05T23:58:25.870Z,86.63
